createdAt,value
2018-06-03T00:00:25.612Z,11.00
2018-06-03T00:02:29.310Z,10.07
2018-06-03T00:04:32.832Z,9.67
2018-06-03T00:06:36.385Z,10.07
2018-06-03T00:08:39.957Z,9.27
2018-06-03T00:10:43.440Z,9.30
2018-06-03T00:12:46.996Z,9.30
2018-06-03T00:14:50.497Z,9.40
2018-06-03T00:16:54.064Z,10.20
2018-06-03T00:18:57.605Z,9.30
2018-06-03T00:21:12.071Z,9.33
2018-06-03T00:23:15.590Z,10.10
2018-06-03T00:25:19.095Z,9.27
2018-06-03T00:27:22.612Z,9.83
2018-06-03T00:29:26.174Z,8.60
2018-06-03T00:31:29.717Z,10.10
2018-06-03T00:33:33.221Z,9.77
2018-06-03T00:35:47.938Z,8.80
2018-06-03T00:37:51.485Z,11.60
2018-06-03T00:39:55.005Z,12.27
2018-06-03T00:41:58.489Z,11.80
2018-06-03T00:44:01.748Z,10.53
2018-06-03T00:46:04.955Z,10.87
2018-06-03T00:48:08.498Z,10.00
2018-06-03T00:50:12.016Z,10.17
2018-06-03T00:52:15.511Z,8.93
2018-06-03T00:54:19.056Z,9.10
2018-06-03T00:56:33.884Z,9.87
2018-06-03T00:58:37.411Z,10.00
2018-06-03T01:00:40.904Z,10.27
2018-06-03T01:02:44.456Z,11.77
2018-06-03T01:04:48.060Z,9.90
2018-06-03T01:06:51.588Z,10.03
2018-06-03T01:08:55.144Z,9.13
2018-06-03T01:10:58.642Z,10.70
2018-06-03T01:13:02.181Z,10.63
2018-06-03T01:15:05.032Z,10.97
2018-06-03T01:17:08.567Z,9.70
2018-06-03T01:19:11.414Z,9.20
2018-06-03T01:21:14.928Z,9.57
2018-06-03T01:23:18.449Z,9.97
2018-06-03T01:25:21.961Z,9.83
2018-06-03T01:27:25.488Z,9.63
2018-06-03T01:29:29.038Z,11.17
2018-06-03T01:31:32.541Z,11.60
2018-06-03T01:33:36.087Z,12.20
2018-06-03T01:35:39.613Z,8.90
2018-06-03T01:37:43.137Z,11.20
2018-06-03T01:39:46.725Z,11.70
2018-06-03T01:41:50.228Z,10.33
2018-06-03T01:43:53.821Z,10.50
2018-06-03T01:45:57.332Z,10.90
2018-06-03T01:48:00.843Z,9.87
2018-06-03T01:50:04.376Z,10.77
2018-06-03T01:52:07.900Z,10.73
2018-06-03T01:54:11.458Z,11.80
2018-06-03T01:56:15.011Z,8.93
2018-06-03T01:58:18.489Z,9.30
2018-06-03T02:00:22.053Z,9.10
2018-06-03T02:02:25.734Z,10.53
2018-06-03T02:04:29.256Z,9.17
2018-06-03T02:06:32.784Z,11.30
2018-06-03T02:08:36.321Z,12.47
2018-06-03T02:10:39.935Z,12.07
2018-06-03T02:12:43.452Z,11.30
2018-06-03T02:14:47.027Z,9.30
2018-06-03T02:16:50.525Z,11.07
2018-06-03T02:18:54.097Z,9.30
2018-06-03T02:20:57.598Z,9.63
2018-06-03T02:23:01.113Z,9.10
2018-06-03T02:25:04.339Z,10.50
2018-06-03T02:27:07.860Z,10.80
2018-06-03T02:29:11.384Z,11.30
2018-06-03T02:31:14.936Z,9.40
2018-06-03T02:33:18.433Z,9.07
2018-06-03T02:35:21.949Z,10.37
2018-06-03T02:37:25.509Z,9.27
2018-06-03T02:39:29.026Z,10.00
2018-06-03T02:41:32.564Z,10.97
2018-06-03T02:43:36.130Z,10.13
2018-06-03T02:45:39.688Z,10.23
2018-06-03T02:47:43.182Z,10.07
2018-06-03T02:49:46.745Z,10.47
2018-06-03T02:51:50.270Z,9.03
2018-06-03T02:53:53.802Z,9.07
2018-06-03T02:55:57.124Z,9.57
2018-06-03T02:58:00.670Z,8.83
2018-06-03T03:00:03.521Z,8.97
2018-06-03T03:02:07.026Z,8.67
2018-06-03T03:04:10.553Z,8.33
2018-06-03T03:06:14.084Z,8.50
2018-06-03T03:08:17.238Z,8.10
2018-06-03T03:10:20.786Z,8.37
2018-06-03T03:12:24.275Z,7.43
2018-06-03T03:14:27.850Z,9.70
2018-06-03T03:16:31.407Z,10.30
2018-06-03T03:18:34.938Z,11.03
2018-06-03T03:20:38.456Z,10.97
2018-06-03T03:22:41.983Z,10.30
2018-06-03T03:24:45.537Z,10.10
2018-06-03T03:26:49.081Z,9.17
2018-06-03T03:28:52.742Z,8.77
2018-06-03T03:30:55.998Z,30.83
2018-06-03T03:32:59.493Z,23.97
2018-06-03T03:35:03.023Z,15.50
2018-06-03T03:37:06.539Z,13.77
2018-06-03T03:39:10.066Z,10.23
2018-06-03T03:41:13.597Z,9.10
2018-06-03T03:43:17.121Z,9.93
2018-06-03T03:45:20.635Z,9.30
2018-06-03T03:47:24.196Z,9.07
2018-06-03T03:49:27.690Z,9.17
2018-06-03T03:51:31.222Z,7.83
2018-06-03T03:53:34.739Z,7.90
2018-06-03T03:55:38.294Z,8.07
2018-06-03T03:57:41.796Z,7.73
2018-06-03T03:59:45.337Z,7.87
2018-06-03T04:01:48.897Z,7.33
2018-06-03T04:03:52.382Z,7.77
2018-06-03T04:05:55.916Z,8.47
2018-06-03T04:07:59.439Z,8.43
2018-06-03T04:10:02.952Z,8.63
2018-06-03T04:12:06.486Z,8.07
2018-06-03T04:14:10.043Z,6.97
2018-06-03T04:16:13.589Z,7.30
2018-06-03T04:18:17.089Z,9.20
2018-06-03T04:20:20.644Z,9.03
2018-06-03T04:22:24.248Z,8.03
2018-06-03T04:24:27.804Z,7.83
2018-06-03T04:26:31.352Z,7.33
2018-06-03T04:28:34.863Z,7.77
2018-06-03T04:30:38.458Z,7.33
2018-06-03T04:32:42.011Z,7.27
2018-06-03T04:34:45.549Z,6.70
2018-06-03T04:36:49.108Z,7.60
2018-06-03T04:38:52.593Z,7.70
2018-06-03T04:40:56.124Z,7.37
2018-06-03T04:42:59.659Z,7.50
2018-06-03T04:45:03.364Z,7.63
2018-06-03T04:47:07.009Z,6.90
2018-06-03T04:49:10.531Z,7.03
2018-06-03T04:51:14.048Z,7.43
2018-06-03T04:53:17.612Z,7.27
2018-06-03T04:55:21.109Z,7.80
2018-06-03T04:57:24.645Z,6.83
2018-06-03T04:59:28.178Z,6.27
2018-06-03T05:01:31.715Z,6.50
2018-06-03T05:03:35.228Z,7.17
2018-06-03T05:05:38.764Z,7.03
2018-06-03T05:07:42.308Z,7.60
2018-06-03T05:09:45.805Z,7.17
2018-06-03T05:11:49.377Z,7.33
2018-06-03T05:13:52.874Z,5.77
2018-06-03T05:15:56.392Z,7.27
2018-06-03T05:17:59.898Z,8.00
2018-06-03T05:20:03.114Z,8.33
2018-06-03T05:22:06.618Z,7.93
2018-06-03T05:24:09.811Z,7.67
2018-06-03T05:26:13.374Z,7.63
2018-06-03T05:28:16.892Z,8.40
2018-06-03T05:30:20.408Z,7.47
2018-06-03T05:32:23.946Z,6.87
2018-06-03T05:34:27.451Z,7.50
2018-06-03T05:36:31.035Z,7.20
2018-06-03T05:38:34.517Z,7.67
2018-06-03T05:40:38.056Z,8.03
2018-06-03T05:42:41.631Z,8.07
2018-06-03T05:44:45.145Z,6.50
2018-06-03T05:46:48.703Z,5.17
2018-06-03T05:48:52.236Z,5.30
2018-06-03T05:50:55.714Z,4.80
2018-06-03T05:52:59.285Z,4.67
2018-06-03T05:55:02.788Z,4.13
2018-06-03T05:57:06.328Z,4.10
2018-06-03T05:59:09.845Z,4.60
2018-06-03T06:01:13.353Z,4.57
2018-06-03T06:03:16.906Z,4.17
2018-06-03T06:05:20.411Z,3.80
2018-06-03T06:07:23.984Z,3.57
2018-06-03T06:09:27.453Z,4.13
2018-06-03T06:11:31.021Z,3.60
2018-06-03T06:13:34.517Z,3.93
2018-06-03T06:15:38.069Z,3.40
2018-06-03T06:17:41.661Z,3.40
2018-06-03T06:19:45.178Z,3.70
2018-06-03T06:21:48.732Z,3.33
2018-06-03T06:23:52.265Z,3.47
2018-06-03T06:25:55.805Z,3.47
2018-06-03T06:27:59.377Z,3.30
2018-06-03T06:30:02.920Z,3.53
2018-06-03T06:32:06.475Z,3.40
2018-06-03T06:34:09.993Z,3.40
2018-06-03T06:36:13.561Z,3.27
2018-06-03T06:38:17.062Z,3.17
2018-06-03T06:40:20.579Z,3.50
2018-06-03T06:42:24.149Z,3.17
2018-06-03T06:44:27.678Z,3.13
2018-06-03T06:46:31.221Z,3.47
2018-06-03T06:48:34.741Z,3.57
2018-06-03T06:50:38.239Z,3.17
2018-06-03T06:52:41.836Z,3.50
2018-06-03T06:54:45.365Z,3.60
2018-06-03T06:56:48.855Z,3.40
2018-06-03T06:58:52.427Z,3.23
2018-06-03T07:00:55.944Z,3.47
2018-06-03T07:02:59.504Z,3.73
2018-06-03T07:05:03.063Z,3.77
2018-06-03T07:07:06.607Z,3.53
2018-06-03T07:09:10.181Z,3.53
2018-06-03T07:11:13.669Z,3.30
2018-06-03T07:13:17.240Z,3.70
2018-06-03T07:15:20.819Z,3.40
2018-06-03T07:17:24.363Z,3.47
2018-06-03T07:19:27.891Z,3.00
2018-06-03T07:21:31.436Z,2.97
2018-06-03T07:23:34.976Z,2.67
2018-06-03T07:25:38.491Z,2.67
2018-06-03T07:27:42.025Z,2.80
2018-06-03T07:29:45.573Z,2.93
2018-06-03T07:31:49.125Z,2.77
2018-06-03T07:33:52.642Z,2.80
2018-06-03T07:35:56.174Z,2.90
2018-06-03T07:37:59.844Z,2.77
2018-06-03T07:40:03.378Z,2.70
2018-06-03T07:42:06.945Z,2.60
2018-06-03T07:44:10.508Z,2.77
2018-06-03T07:46:14.020Z,2.43
2018-06-03T07:48:17.649Z,2.47
2018-06-03T07:50:21.255Z,2.20
2018-06-03T07:52:24.957Z,2.23
2018-06-03T07:54:28.598Z,2.57
2018-06-03T07:56:32.141Z,2.50
2018-06-03T07:58:35.707Z,2.47
2018-06-03T08:00:39.229Z,3.05
2018-06-03T08:02:43.346Z,2.55
2018-06-03T08:04:47.470Z,2.47
2018-06-03T08:06:51.530Z,2.55
2018-06-03T08:08:55.682Z,2.65
2018-06-03T08:10:59.795Z,2.30
2018-06-03T08:13:03.832Z,2.47
2018-06-03T08:15:07.943Z,2.33
2018-06-03T08:17:12.032Z,2.40
2018-06-03T08:19:16.129Z,2.37
2018-06-03T08:21:20.213Z,2.33
2018-06-03T08:23:24.403Z,2.10
2018-06-03T08:25:28.508Z,2.10
2018-06-03T08:27:32.670Z,2.17
2018-06-03T08:29:36.803Z,2.47
2018-06-03T08:31:40.883Z,2.12
2018-06-03T08:33:44.690Z,2.37
2018-06-03T08:35:48.812Z,1.90
2018-06-03T08:37:52.930Z,1.73
2018-06-03T08:39:57.033Z,2.20
2018-06-03T08:42:01.227Z,2.20
2018-06-03T08:44:05.352Z,2.50
2018-06-03T08:46:09.453Z,2.05
2018-06-03T08:48:12.989Z,2.00
2018-06-03T08:50:16.535Z,2.73
2018-06-03T08:52:20.045Z,2.23
2018-06-03T08:54:23.646Z,2.50
2018-06-03T08:56:27.215Z,2.50
2018-06-03T08:58:30.804Z,2.23
2018-06-03T09:00:34.456Z,2.50
2018-06-03T09:02:38.184Z,2.33
2018-06-03T09:04:41.719Z,2.57
2018-06-03T09:06:45.365Z,2.70
2018-06-03T09:08:48.987Z,2.20
2018-06-03T09:10:52.518Z,2.10
2018-06-03T09:12:56.097Z,2.20
2018-06-03T09:14:59.670Z,2.17
2018-06-03T09:17:03.842Z,2.40
2018-06-03T09:19:07.992Z,1.87
2018-06-03T09:21:12.150Z,1.60
2018-06-03T09:23:16.255Z,1.95
2018-06-03T09:25:20.468Z,1.90
2018-06-03T09:27:24.677Z,2.10
2018-06-03T09:29:29.035Z,1.80
2018-06-03T09:31:33.210Z,2.00
2018-06-03T09:33:37.524Z,1.80
2018-06-03T09:35:41.716Z,1.67
2018-06-03T09:37:45.909Z,1.80
2018-06-03T09:39:50.315Z,1.70
2018-06-03T09:41:54.685Z,1.70
2018-06-03T09:43:59.729Z,1.40
2018-06-03T09:46:04.239Z,1.67
2018-06-03T09:48:08.446Z,1.90
2018-06-03T09:50:12.843Z,2.53
2018-06-03T09:52:17.022Z,1.90
2018-06-03T09:54:21.290Z,2.10
2018-06-03T09:56:25.621Z,1.77
2018-06-03T09:58:29.923Z,2.22
2018-06-03T10:00:34.181Z,2.10
2018-06-03T10:02:38.291Z,1.83
2018-06-03T10:05:17.228Z,1.90
2018-06-03T10:07:21.441Z,1.70
2018-06-03T10:09:25.631Z,1.60
2018-06-03T10:11:29.877Z,1.90
2018-06-03T10:13:34.138Z,1.85
2018-06-03T10:15:38.562Z,1.90
2018-06-03T10:17:42.756Z,2.00
2018-06-03T10:19:46.979Z,1.85
2018-06-03T10:21:51.829Z,1.80
2018-06-03T10:23:56.266Z,1.85
2018-06-03T10:26:00.615Z,2.00
2018-06-03T10:28:04.928Z,2.00
2018-06-03T10:30:09.142Z,2.22
2018-06-03T10:32:13.356Z,2.02
2018-06-03T10:34:17.778Z,1.98
2018-06-03T10:36:22.077Z,1.85
2018-06-03T10:38:26.243Z,1.90
2018-06-03T10:40:30.586Z,1.75
2018-06-03T10:42:34.842Z,1.70
2018-06-03T10:44:39.082Z,1.65
2018-06-03T10:46:43.340Z,1.82
2018-06-03T10:48:47.715Z,2.00
2018-06-03T10:50:51.992Z,1.90
2018-06-03T10:52:55.693Z,2.30
2018-06-03T10:54:59.293Z,2.10
2018-06-03T10:57:03.029Z,1.90
2018-06-03T10:59:06.845Z,2.20
2018-06-03T11:01:10.665Z,2.20
2018-06-03T11:03:14.401Z,1.90
2018-06-03T11:05:18.156Z,2.30
2018-06-03T11:07:21.771Z,2.10
2018-06-03T11:09:25.375Z,2.10
2018-06-03T11:11:29.010Z,2.10
2018-06-03T11:13:32.712Z,2.10
2018-06-03T11:15:36.384Z,1.90
2018-06-03T11:17:40.129Z,2.30
2018-06-03T11:19:43.969Z,2.50
2018-06-03T11:21:47.640Z,2.10
2018-06-03T11:23:51.325Z,2.40
2018-06-03T11:25:55.006Z,2.13
2018-06-03T11:27:58.654Z,2.20
2018-06-03T11:30:02.378Z,2.60
2018-06-03T11:32:06.118Z,2.10
2018-06-03T11:34:09.997Z,2.23
2018-06-03T11:36:14.250Z,2.10
2018-06-03T11:38:17.924Z,1.80
2018-06-03T11:40:21.500Z,1.87
2018-06-03T11:42:25.080Z,2.10
2018-06-03T11:44:28.821Z,2.13
2018-06-03T11:46:32.525Z,1.90
2018-06-03T11:48:36.214Z,2.30
2018-06-03T11:50:40.427Z,1.87
2018-06-03T11:52:44.821Z,1.98
2018-06-03T11:54:49.645Z,2.40
2018-06-03T11:57:01.028Z,1.98
2018-06-03T11:59:16.469Z,1.85
2018-06-03T12:01:20.712Z,1.67
2018-06-03T12:03:24.941Z,2.12
2018-06-03T12:05:29.088Z,2.10
2018-06-03T12:07:33.288Z,1.92
2018-06-03T12:09:37.414Z,1.75
2018-06-03T12:11:41.584Z,1.65
2018-06-03T12:13:45.769Z,1.90
2018-06-03T12:15:50.015Z,2.10
2018-06-03T12:17:54.179Z,1.72
2018-06-03T12:19:58.388Z,2.33
2018-06-03T12:22:02.553Z,1.90
2018-06-03T12:24:06.895Z,2.20
2018-06-03T12:26:11.206Z,1.92
2018-06-03T12:28:15.425Z,1.98
2018-06-03T12:30:19.762Z,2.00
2018-06-03T12:32:23.905Z,1.70
2018-06-03T12:34:28.119Z,1.70
2018-06-03T12:36:32.318Z,1.85
2018-06-03T12:38:36.525Z,1.70
2018-06-03T12:40:40.767Z,2.47
2018-06-03T12:42:44.954Z,1.80
2018-06-03T12:44:49.296Z,1.90
2018-06-03T12:46:53.460Z,2.00
2018-06-03T12:48:57.643Z,1.85
2018-06-03T12:51:01.920Z,1.90
2018-06-03T12:53:06.360Z,1.85
2018-06-03T12:55:10.618Z,1.80
2018-06-03T12:57:15.034Z,1.90
2018-06-03T12:59:19.296Z,2.00
2018-06-03T13:01:23.475Z,2.10
2018-06-03T13:03:27.181Z,1.82
2018-06-03T13:05:31.435Z,1.60
2018-06-03T13:07:35.861Z,1.80
2018-06-03T13:09:40.264Z,2.10
2018-06-03T13:11:44.442Z,2.10
2018-06-03T13:13:48.855Z,2.15
2018-06-03T13:15:53.108Z,1.92
2018-06-03T13:17:57.422Z,1.80
2018-06-03T13:20:01.631Z,1.90
2018-06-03T13:22:05.306Z,1.70
2018-06-03T13:24:08.957Z,2.10
2018-06-03T13:26:12.591Z,2.10
2018-06-03T13:28:16.162Z,1.70
2018-06-03T13:30:19.800Z,2.00
2018-06-03T13:32:23.475Z,2.10
2018-06-03T13:34:27.285Z,2.10
2018-06-03T13:36:30.919Z,1.87
2018-06-03T13:38:34.635Z,1.87
2018-06-03T13:40:38.324Z,2.10
2018-06-03T13:42:42.084Z,2.00
2018-06-03T13:44:45.697Z,1.77
2018-06-03T13:46:49.422Z,2.00
2018-06-03T13:48:53.060Z,2.00
2018-06-03T13:50:56.765Z,1.50
2018-06-03T13:53:00.508Z,1.60
2018-06-03T13:55:04.240Z,1.80
2018-06-03T13:57:07.865Z,1.50
2018-06-03T13:59:11.501Z,1.70
2018-06-03T14:01:15.166Z,1.70
2018-06-03T14:03:18.760Z,2.10
2018-06-03T14:05:22.670Z,1.83
2018-06-03T14:07:26.292Z,2.10
2018-06-03T14:09:29.989Z,2.10
2018-06-03T14:11:33.617Z,2.10
2018-06-03T14:13:37.196Z,2.17
2018-06-03T14:15:40.888Z,2.10
2018-06-03T14:17:44.520Z,2.40
2018-06-03T14:19:48.197Z,1.70
2018-06-03T14:21:51.839Z,2.17
2018-06-03T14:23:55.491Z,1.60
2018-06-03T14:25:59.093Z,1.80
2018-06-03T14:28:02.731Z,1.90
2018-06-03T14:30:06.355Z,1.60
2018-06-03T14:32:09.894Z,1.83
2018-06-03T14:34:13.448Z,1.83
2018-06-03T14:36:17.079Z,2.47
2018-06-03T14:38:20.660Z,2.03
2018-06-03T14:40:24.162Z,1.97
2018-06-03T14:42:27.811Z,2.07
2018-06-03T14:44:31.510Z,1.90
2018-06-03T14:46:35.259Z,1.70
2018-06-03T14:48:38.915Z,2.00
2018-06-03T14:50:42.692Z,1.97
2018-06-03T14:52:46.231Z,1.83
2018-06-03T14:54:49.916Z,2.10
2018-06-03T14:56:53.545Z,1.73
2018-06-03T14:58:57.060Z,2.13
2018-06-03T15:01:00.648Z,1.63
2018-06-03T15:03:04.277Z,2.00
2018-06-03T15:05:07.818Z,1.60
2018-06-03T15:07:11.523Z,2.67
2018-06-03T15:09:15.103Z,2.10
2018-06-03T15:11:18.705Z,1.83
2018-06-03T15:13:22.262Z,1.90
2018-06-03T15:15:25.762Z,1.93
2018-06-03T15:17:29.362Z,1.90
2018-06-03T15:19:32.992Z,2.03
2018-06-03T15:21:36.722Z,2.00
2018-06-03T15:23:40.351Z,1.80
2018-06-03T15:25:44.016Z,1.80
2018-06-03T15:27:47.523Z,2.03
2018-06-03T15:29:51.102Z,2.03
2018-06-03T15:31:54.697Z,1.60
2018-06-03T15:33:58.318Z,2.40
2018-06-03T15:36:01.921Z,1.80
2018-06-03T15:38:05.532Z,1.73
2018-06-03T15:40:09.197Z,1.73
2018-06-03T15:42:12.762Z,1.67
2018-06-03T15:44:16.380Z,1.83
2018-06-03T15:46:19.956Z,2.13
2018-06-03T15:48:23.629Z,1.93
2018-06-03T15:50:27.203Z,2.00
2018-06-03T15:52:30.923Z,1.80
2018-06-03T15:54:34.534Z,2.10
2018-06-03T15:56:38.194Z,1.60
2018-06-03T15:58:41.779Z,1.80
2018-06-03T16:00:45.379Z,1.70
2018-06-03T16:02:48.931Z,1.50
2018-06-03T16:04:52.454Z,1.67
2018-06-03T16:06:55.999Z,1.87
2018-06-03T16:08:59.870Z,1.50
2018-06-03T16:11:03.685Z,1.90
2018-06-03T16:13:07.380Z,1.90
2018-06-03T16:15:10.909Z,1.63
2018-06-03T16:17:14.494Z,1.50
2018-06-03T16:19:18.162Z,1.83
2018-06-03T16:21:21.701Z,1.70
2018-06-03T16:23:25.669Z,1.57
2018-06-03T16:25:29.399Z,1.53
2018-06-03T16:27:32.942Z,1.50
2018-06-03T16:29:36.757Z,1.57
2018-06-03T16:31:40.417Z,1.40
2018-06-03T16:33:43.951Z,2.00
2018-06-03T16:35:47.804Z,2.10
2018-06-03T16:37:51.477Z,1.97
2018-06-03T16:39:55.422Z,1.67
2018-06-03T16:41:59.137Z,1.90
2018-06-03T16:44:03.148Z,1.70
2018-06-03T16:46:06.754Z,1.50
2018-06-03T16:48:10.339Z,1.53
2018-06-03T16:50:14.021Z,1.50
2018-06-03T16:52:17.965Z,1.80
2018-06-03T16:54:28.117Z,2.00
2018-06-03T16:56:32.073Z,1.40
2018-06-03T16:58:35.875Z,1.70
2018-06-03T17:00:39.692Z,1.57
2018-06-03T17:02:43.497Z,1.50
2018-06-03T17:04:47.216Z,1.50
2018-06-03T17:06:51.017Z,1.53
2018-06-03T17:08:54.616Z,1.30
2018-06-03T17:10:58.292Z,1.70
2018-06-03T17:13:01.933Z,1.57
2018-06-03T17:15:05.588Z,1.50
2018-06-03T17:17:09.229Z,1.70
2018-06-03T17:19:12.851Z,1.27
2018-06-03T17:21:16.434Z,1.43
2018-06-03T17:23:20.108Z,1.40
2018-06-03T17:25:23.787Z,1.37
2018-06-03T17:27:27.436Z,1.57
2018-06-03T17:29:31.085Z,1.23
2018-06-03T17:31:34.684Z,1.33
2018-06-03T17:33:38.505Z,1.40
2018-06-03T17:35:42.100Z,1.50
2018-06-03T17:37:45.655Z,1.50
2018-06-03T17:39:49.262Z,1.60
2018-06-03T17:41:52.852Z,1.30
2018-06-03T17:43:56.396Z,1.67
2018-06-03T17:46:00.088Z,1.50
2018-06-03T17:48:03.732Z,1.43
2018-06-03T17:50:07.291Z,1.87
2018-06-03T17:52:10.922Z,1.70
2018-06-03T17:54:14.646Z,1.20
2018-06-03T17:56:18.491Z,1.20
2018-06-03T17:58:22.129Z,2.20
2018-06-03T18:00:25.690Z,1.30
2018-06-03T18:02:29.304Z,1.30
2018-06-03T18:04:32.804Z,1.50
2018-06-03T18:06:36.473Z,1.20
2018-06-03T18:08:40.072Z,1.40
2018-06-03T18:10:43.713Z,1.90
2018-06-03T18:12:47.196Z,1.47
2018-06-03T18:14:50.697Z,1.83
2018-06-03T18:16:54.305Z,1.20
2018-06-03T18:18:58.005Z,1.30
2018-06-03T18:21:01.739Z,1.77
2018-06-03T18:23:05.512Z,1.60
2018-06-03T18:25:09.085Z,1.33
2018-06-03T18:27:12.834Z,1.50
2018-06-03T18:29:16.440Z,1.20
2018-06-03T18:31:20.119Z,1.87
2018-06-03T18:33:23.677Z,1.60
2018-06-03T18:35:27.322Z,1.97
2018-06-03T18:37:30.954Z,1.50
2018-06-03T18:39:34.632Z,1.70
2018-06-03T18:41:38.207Z,2.03
2018-06-03T18:43:41.829Z,1.93
2018-06-03T18:45:45.452Z,1.57
2018-06-03T18:47:49.022Z,2.10
2018-06-03T18:49:52.622Z,1.60
2018-06-03T18:51:56.213Z,1.60
2018-06-03T18:53:59.787Z,2.13
2018-06-03T18:56:03.383Z,2.10
2018-06-03T18:58:07.013Z,1.87
2018-06-03T19:00:10.537Z,2.00
2018-06-03T19:02:14.028Z,1.70
2018-06-03T19:04:17.603Z,1.53
2018-06-03T19:06:21.117Z,1.50
2018-06-03T19:08:24.690Z,1.70
2018-06-03T19:10:28.308Z,2.17
2018-06-03T19:12:31.869Z,2.30
2018-06-03T19:14:35.607Z,2.00
2018-06-03T19:16:39.352Z,2.07
2018-06-03T19:18:42.949Z,2.20
2018-06-03T19:20:46.548Z,1.93
2018-06-03T19:22:50.246Z,2.17
2018-06-03T19:24:53.903Z,1.97
2018-06-03T19:26:57.444Z,2.10
2018-06-03T19:29:01.022Z,2.07
2018-06-03T19:31:04.688Z,2.43
2018-06-03T19:33:08.356Z,2.00
2018-06-03T19:35:12.012Z,2.00
2018-06-03T19:37:15.637Z,2.10
2018-06-03T19:39:19.336Z,2.13
2018-06-03T19:41:22.956Z,3.07
2018-06-03T19:43:26.553Z,2.00
2018-06-03T19:45:30.170Z,2.30
2018-06-03T19:47:33.848Z,2.33
2018-06-03T19:49:37.372Z,2.30
2018-06-03T19:51:41.000Z,2.20
2018-06-03T19:53:44.582Z,2.37
2018-06-03T19:55:48.270Z,1.90
2018-06-03T19:57:51.889Z,2.80
2018-06-03T19:59:55.577Z,2.20
2018-06-03T20:01:59.252Z,2.53
2018-06-03T20:04:02.802Z,2.23
2018-06-03T20:06:06.387Z,2.47
2018-06-03T20:08:09.965Z,2.50
2018-06-03T20:10:13.592Z,2.33
2018-06-03T20:12:17.249Z,2.13
2018-06-03T20:14:20.992Z,2.20
2018-06-03T20:16:24.580Z,2.17
2018-06-03T20:18:28.217Z,3.10
2018-06-03T20:20:31.829Z,2.63
2018-06-03T20:22:35.356Z,2.70
2018-06-03T20:24:38.961Z,2.63
2018-06-03T20:26:42.694Z,2.53
2018-06-03T20:28:46.288Z,2.30
2018-06-03T20:30:49.869Z,2.80
2018-06-03T20:32:53.427Z,2.40
2018-06-03T20:34:56.936Z,2.60
2018-06-03T20:37:00.565Z,2.90
2018-06-03T20:39:06.240Z,2.93
2018-06-03T20:41:09.933Z,3.40
2018-06-03T20:43:13.482Z,2.90
2018-06-03T20:45:17.039Z,2.73
2018-06-03T20:47:20.696Z,3.20
2018-06-03T20:49:24.204Z,3.33
2018-06-03T20:51:27.773Z,3.10
2018-06-03T20:53:31.377Z,2.90
2018-06-03T20:55:34.924Z,2.80
2018-06-03T20:57:38.599Z,3.00
2018-06-03T20:59:42.236Z,2.60
2018-06-03T21:01:45.784Z,2.70
2018-06-03T21:03:49.358Z,2.33
2018-06-03T21:05:52.892Z,2.43
2018-06-03T21:07:56.445Z,2.50
2018-06-03T21:09:59.965Z,2.73
2018-06-03T21:12:03.473Z,2.67
2018-06-03T21:14:07.044Z,2.63
2018-06-03T21:16:10.554Z,3.13
2018-06-03T21:18:14.026Z,3.00
2018-06-03T21:20:17.557Z,3.00
2018-06-03T21:22:21.077Z,2.67
2018-06-03T21:24:24.679Z,3.00
2018-06-03T21:26:28.218Z,3.43
2018-06-03T21:28:31.766Z,3.20
2018-06-03T21:30:35.315Z,3.23
2018-06-03T21:32:38.789Z,3.30
2018-06-03T21:34:42.365Z,3.57
2018-06-03T21:36:45.895Z,2.87
2018-06-03T21:38:49.439Z,2.70
2018-06-03T21:40:53.002Z,3.60
2018-06-03T21:42:56.596Z,3.47
2018-06-03T21:45:00.168Z,3.53
2018-06-03T21:47:03.713Z,3.43
2018-06-03T21:49:07.239Z,3.40
2018-06-03T21:51:10.801Z,3.53
2018-06-03T21:53:14.376Z,3.30
2018-06-03T21:55:18.041Z,3.17
2018-06-03T21:57:21.603Z,3.47
2018-06-03T21:59:25.207Z,3.03
2018-06-03T22:01:28.735Z,3.17
2018-06-03T22:03:32.366Z,3.13
2018-06-03T22:05:35.967Z,3.67
2018-06-03T22:07:39.504Z,3.37
2018-06-03T22:09:43.060Z,3.60
2018-06-03T22:11:46.589Z,3.37
2018-06-03T22:13:50.122Z,3.80
2018-06-03T22:15:53.655Z,3.70
2018-06-03T22:17:57.659Z,3.47
2018-06-03T22:20:01.205Z,3.23
2018-06-03T22:22:04.701Z,3.87
2018-06-03T22:24:08.234Z,3.37
2018-06-03T22:26:11.809Z,3.77
2018-06-03T22:28:15.408Z,3.03
2018-06-03T22:30:19.003Z,3.70
2018-06-03T22:32:22.521Z,3.23
2018-06-03T22:34:26.125Z,4.00
2018-06-03T22:36:29.692Z,4.37
2018-06-03T22:38:33.234Z,4.23
2018-06-03T22:40:36.854Z,3.70
2018-06-03T22:42:46.894Z,4.30
2018-06-03T22:44:50.516Z,4.53
2018-06-03T22:46:54.009Z,3.70
2018-06-03T22:48:57.591Z,3.40
2018-06-03T22:51:01.173Z,4.10
2018-06-03T22:53:04.800Z,4.40
2018-06-03T22:55:08.440Z,3.97
2018-06-03T22:57:54.393Z,3.47
2018-06-03T22:59:57.942Z,3.93
2018-06-03T23:02:01.548Z,3.90
2018-06-03T23:04:05.149Z,4.00
2018-06-03T23:06:08.656Z,3.53
2018-06-03T23:08:12.230Z,3.57
2018-06-03T23:10:15.841Z,4.30
2018-06-03T23:12:19.373Z,3.90
2018-06-03T23:14:22.888Z,3.60
2018-06-03T23:16:26.440Z,4.20
2018-06-03T23:18:29.990Z,4.63
2018-06-03T23:20:33.577Z,5.10
2018-06-03T23:22:37.111Z,4.67
2018-06-03T23:24:40.751Z,4.47
2018-06-03T23:26:44.530Z,4.80
2018-06-03T23:28:48.119Z,3.97
2018-06-03T23:30:51.842Z,4.20
2018-06-03T23:32:55.517Z,4.50
2018-06-03T23:34:59.097Z,4.43
2018-06-03T23:37:02.644Z,4.10
2018-06-03T23:39:07.326Z,4.37
2018-06-03T23:41:10.993Z,4.53
2018-06-03T23:43:14.536Z,4.90
2018-06-03T23:45:18.112Z,5.17
2018-06-03T23:47:21.729Z,4.17
2018-06-03T23:49:25.230Z,4.10
2018-06-03T23:51:28.827Z,3.87
2018-06-03T23:53:32.402Z,4.37
2018-06-03T23:55:36.001Z,4.40
2018-06-03T23:57:39.515Z,4.67
2018-06-03T23:59:43.153Z,5.13
